BRE weather

Bremen Airport
Bremen, Bremen, Germany

Public forecast

Using degrees Celsius for public forecast. Weather courtesy of forecast.io.

Current aviation weather report (METAR) for Bremen Airport

Retrieved 2019/10/20 05:20 UTC (16 minutes ago):

EDDW 200520Z 12003KT 6000 NSC 09/09 Q1008 TEMPO 2000 BR

Aviation forecast (TAF) for Bremen Airport

Retrieved 2019-10-20 00:27 UTC (5 hours ago):

TAF EDDW 192300Z 2000/2024 16004KT 9999 SCT020 PROB40 TEMPO 2000/2002 1200 BCFG TEMPO 2002/2015 4000 -RA BECMG 2013/2016 04007KT BKN012 TEMPO 2015/2024 3500 RADZ PROB40 TEMPO 2019/2024 2500 -RA BKN007